Time;durP1;ratioP1;P1;durP2;ratioP2;P2;SDS_P1;SDS_P2;PMS_P1;PMS_P2;Temp;Humidity;BMP_temperature;BMP_pressure;BME280_temperature;BME280_humidity;BME280_pressure;Samples;Min_cycle;Max_cycle;Signal;HPM_P1;HPM_P2
2023/06/03 00:02:04;;;;;;;8.88;2.38;;;13.00;67.30;;;;;;4740012;30;20086;-92
2023/06/03 00:04:32;;;;;;;7.30;2.42;;;12.80;67.30;;;;;;4740004;30;20056;-90
2023/06/03 00:06:59;;;;;;;7.13;2.13;;;12.80;67.50;;;;;;4725515;30;20427;-91
2023/06/03 00:09:26;;;;;;;10.03;2.43;;;12.70;68.00;;;;;;4740129;30;20411;-93
2023/06/03 00:11:54;;;;;;;7.85;2.63;;;12.60;68.10;;;;;;4740161;30;20052;-90
2023/06/03 00:14:21;;;;;;;5.97;2.15;;;12.60;68.20;;;;;;4740227;30;20052;-91
2023/06/03 00:16:48;;;;;;;8.02;2.45;;;12.50;68.30;;;;;;4739876;30;20059;-90
2023/06/03 00:19:17;;;;;;;9.05;2.53;;;12.50;68.10;;;;;;4740239;30;20584;-90
2023/06/03 00:21:49;;;;;;;8.90;2.30;;;12.40;68.20;;;;;;4740065;30;20455;-91
2023/06/03 00:24:23;;;;;;;10.00;3.78;;;12.40;68.20;;;;;;4725549;30;20062;-90
2023/06/03 00:26:53;;;;;;;7.18;2.63;;;12.40;68.40;;;;;;4739538;30;20060;-92
2023/06/03 00:29:21;;;;;;;7.40;2.60;;;12.30;68.60;;;;;;4739677;30;20435;-91
2023/06/03 00:31:48;;;;;;;10.05;2.75;;;12.10;68.60;;;;;;4739684;30;20098;-93
2023/06/03 00:34:15;;;;;;;8.70;2.93;;;12.10;68.40;;;;;;4740166;30;20052;-91
2023/06/03 00:36:43;;;;;;;6.22;2.15;;;12.10;68.60;;;;;;4739741;30;20147;-91
2023/06/03 00:39:10;;;;;;;8.32;2.72;;;12.10;68.80;;;;;;4739630;30;20131;-90
2023/06/03 00:41:37;;;;;;;6.13;2.38;;;12.10;68.90;;;;;;4739502;30;20143;-91
2023/06/03 00:44:05;;;;;;;7.85;2.72;;;12.00;68.80;;;;;;4739258;30;20106;-91
2023/06/03 00:46:34;;;;;;;8.37;2.30;;;12.00;68.60;;;;;;4739972;30;20045;-92
2023/06/03 00:49:02;;;;;;;6.50;2.20;;;12.00;68.80;;;;;;4738631;30;20060;-92
2023/06/03 00:51:31;;;;;;;6.95;3.17;;;11.90;68.20;;;;;;4739381;30;20055;-92
2023/06/03 00:53:59;;;;;;;8.20;2.60;;;11.90;68.70;;;;;;4739614;30;20060;-92
2023/06/03 00:56:29;;;;;;;8.27;2.50;;;11.90;68.80;;;;;;4739336;30;20060;-91
2023/06/03 00:58:57;;;;;;;7.00;2.30;;;11.70;69.30;;;;;;4739192;30;20052;-91
2023/06/03 01:01:28;;;;;;;8.48;2.65;;;11.70;69.50;;;;;;4739355;30;20062;-92
2023/06/03 01:03:56;;;;;;;7.20;3.15;;;11.60;69.50;;;;;;4739327;30;20056;-91
2023/06/03 01:06:45;;;;;;;7.10;2.63;;;11.60;70.00;;;;;;4739016;30;20053;-92
2023/06/03 01:09:29;;;;;;;7.07;2.75;;;11.50;70.20;;;;;;4724625;30;20048;-92
2023/06/03 01:12:22;;;;;;;7.27;2.33;;;11.50;70.60;;;;;;4738916;30;20056;-91
2023/06/03 01:14:54;;;;;;;7.97;3.15;;;11.50;70.60;;;;;;4717723;30;20450;-91
2023/06/03 01:17:24;;;;;;;5.97;2.38;;;11.50;70.80;;;;;;4738818;30;20078;-92
2023/06/03 01:19:52;;;;;;;7.25;2.65;;;11.50;70.70;;;;;;4738614;30;20060;-92
2023/06/03 01:22:24;;;;;;;8.93;2.65;;;11.50;70.50;;;;;;4738955;30;20143;-92
2023/06/03 01:25:05;;;;;;;6.80;2.77;;;11.50;71.00;;;;;;4724347;30;20052;-92
2023/06/03 01:27:33;;;;;;;8.38;3.15;;;11.50;70.90;;;;;;4738897;30;20515;-92
2023/06/03 01:30:00;;;;;;;8.20;3.08;;;11.40;71.10;;;;;;4738837;30;20442;-92
2023/06/03 01:32:31;;;;;;;10.00;2.95;;;11.40;71.10;;;;;;4739241;30;20521;-92
2023/06/03 01:34:59;;;;;;;8.30;2.90;;;11.40;71.10;;;;;;4724248;30;20059;-91
2023/06/03 01:37:27;;;;;;;9.27;3.10;;;11.40;71.10;;;;;;4738880;30;20063;-91
2023/06/03 01:39:55;;;;;;;10.82;3.30;;;11.40;71.30;;;;;;4738552;30;20056;-92
2023/06/03 01:42:23;;;;;;;9.80;3.28;;;11.30;71.80;;;;;;4738380;30;20091;-91
2023/06/03 01:44:52;;;;;;;8.80;3.00;;;11.40;72.00;;;;;;4738754;30;20566;-91
2023/06/03 01:47:20;;;;;;;7.60;3.45;;;11.30;72.30;;;;;;4723897;30;20048;-91
2023/06/03 01:49:47;;;;;;;8.17;3.10;;;11.30;71.90;;;;;;4738673;30;20547;-91
2023/06/03 01:52:15;;;;;;;9.02;3.17;;;11.40;71.90;;;;;;4738811;30;20062;-91
2023/06/03 01:54:43;;;;;;;8.45;3.58;;;11.40;71.60;;;;;;4738525;30;20078;-91
2023/06/03 01:57:10;;;;;;;9.25;3.92;;;11.40;71.60;;;;;;4738732;30;20056;-91
2023/06/03 01:59:37;;;;;;;8.70;4.32;;;11.20;73.00;;;;;;4738024;30;20091;-89
2023/06/03 02:02:05;;;;;;;8.10;4.23;;;11.10;74.00;;;;;;4738102;30;20135;-90
2023/06/03 02:04:32;;;;;;;9.23;4.60;;;11.10;74.00;;;;;;4738143;30;20515;-90
2023/06/03 02:07:00;;;;;;;9.68;4.65;;;11.10;74.00;;;;;;4738378;30;20567;-91
2023/06/03 02:09:29;;;;;;;12.32;4.65;;;11.10;74.50;;;;;;4738947;30;20131;-92
2023/06/03 02:11:59;;;;;;;14.32;5.45;;;11.10;74.70;;;;;;4738554;30;20059;-90
2023/06/03 02:14:28;;;;;;;12.47;5.03;;;11.00;74.80;;;;;;4737975;30;20125;-90
2023/06/03 02:16:56;;;;;;;12.27;5.35;;;11.00;75.10;;;;;;4752624;30;20064;-91
2023/06/03 02:19:25;;;;;;;14.95;5.45;;;11.00;75.20;;;;;;4737622;30;20063;-91
2023/06/03 02:21:57;;;;;;;13.20;5.50;;;11.00;74.50;;;;;;4752619;30;20059;-91
2023/06/03 02:24:28;;;;;;;11.18;4.75;;;11.00;74.80;;;;;;4752521;30;20063;-90
2023/06/03 02:27:01;;;;;;;12.40;5.40;;;11.00;74.60;;;;;;4752482;30;20064;-90
2023/06/03 02:29:29;;;;;;;10.57;4.65;;;11.00;74.60;;;;;;4737956;30;20053;-91
2023/06/03 02:31:58;;;;;;;11.25;4.95;;;11.00;74.30;;;;;;4753008;30;20044;-91
2023/06/03 02:34:25;;;;;;;12.70;5.00;;;11.00;74.00;;;;;;4738367;30;20056;-91
2023/06/03 02:36:53;;;;;;;11.85;5.47;;;11.00;74.10;;;;;;4738034;30;20152;-92
2023/06/03 02:39:21;;;;;;;12.20;5.30;;;11.00;74.60;;;;;;4752331;30;20078;-91
2023/06/03 02:41:48;;;;;;;9.73;4.32;;;11.00;74.70;;;;;;4737533;30;20060;-90
2023/06/03 02:44:17;;;;;;;10.95;4.53;;;11.00;74.30;;;;;;4752123;30;20508;-91
2023/06/03 02:46:45;;;;;;;13.82;5.22;;;11.00;73.80;;;;;;4737884;30;20052;-90
2023/06/03 02:49:13;;;;;;;13.55;4.82;;;11.00;74.20;;;;;;4737395;30;20088;-90
2023/06/03 02:51:40;;;;;;;10.50;4.40;;;10.90;74.00;;;;;;4737814;30;20063;-91
2023/06/03 02:54:08;;;;;;;11.70;5.45;;;10.90;74.10;;;;;;4752120;30;20056;-90
2023/06/03 02:56:35;;;;;;;10.48;5.18;;;10.90;74.50;;;;;;4751953;30;20056;-91
2023/06/03 02:59:03;;;;;;;11.38;4.88;;;10.90;74.70;;;;;;4737689;30;20052;-90
2023/06/03 03:01:31;;;;;;;11.55;5.80;;;11.00;74.30;;;;;;4751881;30;20057;-90
2023/06/03 03:03:59;;;;;;;12.53;5.53;;;11.00;74.10;;;;;;4752965;30;20519;-90
2023/06/03 03:06:26;;;;;;;10.30;4.90;;;11.00;74.40;;;;;;4737266;30;20048;-90
2023/06/03 03:08:54;;;;;;;11.32;5.53;;;11.00;74.00;;;;;;4737212;30;20094;-90
2023/06/03 03:11:31;;;;;;;12.65;6.15;;;11.00;74.10;;;;;;4737652;30;20144;-90
2023/06/03 03:13:58;;;;;;;10.95;5.55;;;11.00;74.00;;;;;;4740557;30;20075;-92
2023/06/03 03:16:26;;;;;;;12.50;5.80;;;11.00;74.20;;;;;;4740809;30;20052;-90
2023/06/03 03:18:55;;;;;;;11.32;5.07;;;11.00;74.10;;;;;;4755037;30;20080;-91
2023/06/03 03:21:23;;;;;;;10.05;5.10;;;11.10;73.60;;;;;;4755222;30;20079;-90
2023/06/03 03:23:50;;;;;;;12.82;6.10;;;11.10;73.20;;;;;;4740358;30;20058;-91
2023/06/03 03:26:24;;;;;;;15.88;6.20;;;11.00;74.10;;;;;;4755010;30;20119;-90
2023/06/03 03:28:55;;;;;;;13.67;7.10;;;11.00;74.20;;;;;;4740467;30;20044;-90
2023/06/03 03:31:23;;;;;;;14.48;5.72;;;11.00;74.30;;;;;;4755293;30;20052;-91
2023/06/03 03:33:50;;;;;;;11.60;6.38;;;10.90;74.70;;;;;;4755279;30;20418;-91
2023/06/03 03:36:22;;;;;;;12.10;6.13;;;10.90;75.00;;;;;;4755331;30;20071;-92
2023/06/03 03:39:06;;;;;;;13.60;5.82;;;10.90;75.20;;;;;;4740810;30;20588;-92
2023/06/03 03:41:43;;;;;;;13.70;6.13;;;10.80;75.20;;;;;;4740349;30;20048;-91
2023/06/03 03:44:12;;;;;;;15.40;7.07;;;10.70;76.00;;;;;;4754900;30;20052;-91
2023/06/03 03:46:51;;;;;;;13.88;7.38;;;10.50;76.70;;;;;;4740192;30;20050;-91
2023/06/03 03:49:28;;;;;;;12.88;6.05;;;10.40;77.40;;;;;;4754808;30;20537;-91
2023/06/03 03:52:04;;;;;;;13.50;6.70;;;10.40;77.60;;;;;;4755390;30;20048;-93
2023/06/03 03:54:35;;;;;;;15.37;6.93;;;10.50;77.60;;;;;;4740279;30;20550;-92
2023/06/03 03:57:13;;;;;;;17.77;6.72;;;10.50;77.50;;;;;;4740455;30;20048;-93
2023/06/03 03:59:47;;;;;;;16.27;7.50;;;10.50;77.50;;;;;;4739936;30;20484;-92
2023/06/03 04:02:15;;;;;;;14.82;6.78;;;10.60;77.40;;;;;;4740222;30;20052;-91
2023/06/03 04:04:44;;;;;;;16.45;6.97;;;10.60;77.40;;;;;;4739983;30;20044;-90
2023/06/03 04:07:20;;;;;;;12.30;6.10;;;10.70;77.30;;;;;;4740092;30;20055;-92
2023/06/03 04:09:47;;;;;;;13.40;6.30;;;10.70;77.30;;;;;;4740001;30;20049;-91
2023/06/03 04:12:29;;;;;;;14.73;7.35;;;10.70;77.20;;;;;;4754604;30;20052;-93
2023/06/03 04:14:59;;;;;;;15.25;6.72;;;10.70;77.30;;;;;;4740094;30;20091;-92
2023/06/03 04:17:27;;;;;;;17.40;7.90;;;10.70;77.50;;;;;;4754869;30;20059;-92
2023/06/03 04:19:55;;;;;;;14.73;6.40;;;10.70;77.70;;;;;;4754623;30;20071;-91
2023/06/03 04:22:28;;;;;;;13.57;6.68;;;10.70;78.00;;;;;;4753613;30;20052;-91
2023/06/03 04:25:00;;;;;;;13.55;6.93;;;10.80;77.80;;;;;;4739561;30;20049;-91
2023/06/03 04:27:54;;;;;;;16.98;7.07;;;10.90;77.70;;;;;;4752239;30;20053;-91
2023/06/03 04:30:21;;;;;;;14.63;7.25;;;11.00;77.70;;;;;;4754367;30;20147;-91
2023/06/03 04:32:49;;;;;;;12.43;6.63;;;11.00;77.40;;;;;;4754147;30;20044;-92
2023/06/03 04:35:18;;;;;;;12.60;6.82;;;11.10;77.20;;;;;;4739738;30;20059;-93
2023/06/03 04:37:46;;;;;;;12.85;6.78;;;11.20;77.00;;;;;;4754584;30;20053;-91
2023/06/03 04:40:17;;;;;;;12.50;6.28;;;11.40;76.50;;;;;;4754668;30;20519;-91
2023/06/03 04:42:46;;;;;;;11.93;6.22;;;11.40;75.90;;;;;;4739906;30;20139;-92
2023/06/03 04:45:14;;;;;;;12.77;6.43;;;11.50;76.50;;;;;;4739755;30;20134;-91
2023/06/03 04:47:42;;;;;;;11.85;6.28;;;11.60;75.90;;;;;;4753929;30;20052;-92
2023/06/03 04:50:19;;;;;;;11.95;6.32;;;11.80;75.50;;;;;;4739353;30;20144;-92
2023/06/03 04:52:48;;;;;;;14.05;6.47;;;12.00;74.80;;;;;;4739962;30;20420;-92
2023/06/03 04:55:17;;;;;;;12.10;5.88;;;12.10;73.70;;;;;;4754469;30;20148;-92
2023/06/03 04:57:47;;;;;;;15.53;5.70;;;12.20;73.70;;;;;;4739350;30;20091;-92
2023/06/03 05:00:19;;;;;;;11.10;5.63;;;12.30;73.40;;;;;;4753871;30;20052;-92
2023/06/03 05:02:59;;;;;;;11.95;5.35;;;12.50;73.20;;;;;;4739033;30;20084;-91
2023/06/03 05:05:29;;;;;;;11.23;5.57;;;12.50;72.00;;;;;;4739171;30;20581;-92
2023/06/03 05:07:58;;;;;;;11.55;5.65;;;12.80;72.00;;;;;;4753561;30;20111;-93
2023/06/03 05:10:26;;;;;;;10.33;5.30;;;12.90;71.50;;;;;;4739558;30;20393;-93
2023/06/03 05:12:53;;;;;;;12.50;5.25;;;13.00;70.70;;;;;;4739273;30;20059;-90
2023/06/03 05:15:21;;;;;;;10.30;5.30;;;12.90;71.30;;;;;;4753661;30;20503;-92
2023/06/03 05:17:49;;;;;;;11.23;4.63;;;12.90;71.10;;;;;;4738962;30;20110;-92
2023/06/03 05:20:22;;;;;;;12.20;5.00;;;13.00;71.10;;;;;;4753481;30;20424;-92
2023/06/03 05:23:00;;;;;;;11.63;5.23;;;13.20;70.10;;;;;;4753967;30;20080;-93
2023/06/03 05:25:30;;;;;;;12.13;5.30;;;13.30;69.70;;;;;;4755619;30;20241;-93
2023/06/03 05:27:58;;;;;;;12.25;5.55;;;13.30;69.50;;;;;;4740448;30;20052;-93
2023/06/03 05:30:34;;;;;;;12.15;4.53;;;13.40;69.20;;;;;;4756783;30;20044;-94
2023/06/03 05:33:05;;;;;;;10.70;5.13;;;13.50;68.10;;;;;;4739144;30;20052;-89
2023/06/03 05:35:34;;;;;;;10.83;5.10;;;13.50;67.60;;;;;;4738261;30;20056;-89
2023/06/03 05:38:05;;;;;;;10.65;5.05;;;13.70;67.90;;;;;;4738581;30;20076;-88
2023/06/03 05:40:33;;;;;;;11.45;4.45;;;13.70;67.20;;;;;;4752423;30;20164;-87
2023/06/03 05:43:00;;;;;;;10.70;4.93;;;13.70;66.10;;;;;;4737716;30;20052;-85
2023/06/03 05:45:27;;;;;;;10.27;4.47;;;13.70;66.00;;;;;;4722430;30;20080;-86
2023/06/03 05:47:57;;;;;;;10.50;3.70;;;13.90;66.70;;;;;;4734447;30;20044;-87
2023/06/03 05:50:25;;;;;;;9.85;3.72;;;14.00;65.40;;;;;;4752173;30;20079;-87
2023/06/03 05:52:55;;;;;;;9.90;3.70;;;14.20;63.90;;;;;;4737876;30;20110;-87
2023/06/03 05:55:24;;;;;;;7.93;3.03;;;14.20;63.70;;;;;;4727812;30;20048;-86
2023/06/03 05:57:52;;;;;;;8.65;3.33;;;14.20;63.20;;;;;;4752174;30;20059;-85
2023/06/03 06:00:19;;;;;;;8.80;3.33;;;14.30;62.10;;;;;;4737570;30;20087;-85
2023/06/03 06:02:50;;;;;;;10.70;3.78;;;14.30;61.10;;;;;;4737851;30;20087;-85
2023/06/03 06:05:17;;;;;;;10.02;3.50;;;14.30;62.30;;;;;;4743835;30;20496;-85
2023/06/03 06:07:45;;;;;;;9.55;3.58;;;14.40;62.30;;;;;;4732477;30;20499;-84
2023/06/03 06:10:12;;;;;;;6.50;2.55;;;14.50;61.20;;;;;;4746246;30;20131;-85
2023/06/03 06:12:39;;;;;;;7.87;3.07;;;14.50;58.80;;;;;;4750432;30;20051;-85
2023/06/03 06:15:09;;;;;;;6.15;2.22;;;14.50;60.20;;;;;;4749678;30;20052;-86
2023/06/03 06:17:37;;;;;;;6.47;2.55;;;14.50;57.90;;;;;;4749430;30;20052;-86
2023/06/03 06:20:06;;;;;;;7.20;3.17;;;14.50;57.00;;;;;;4737361;30;20060;-87
2023/06/03 06:22:35;;;;;;;10.52;2.60;;;14.50;58.30;;;;;;4750350;30;20504;-85
2023/06/03 06:25:04;;;;;;;6.83;2.33;;;14.50;57.90;;;;;;4741176;30;20052;-84
2023/06/03 06:27:32;;;;;;;8.23;2.28;;;14.60;58.20;;;;;;4737283;30;20455;-85
2023/06/03 06:30:00;;;;;;;6.13;1.95;;;14.80;55.00;;;;;;4743369;30;20684;-85
2023/06/03 06:32:30;;;;;;;7.68;2.35;;;14.90;53.70;;;;;;4735804;30;20049;-85
2023/06/03 06:34:57;;;;;;;8.82;2.85;;;15.00;55.90;;;;;;4737164;30;20052;-85
2023/06/03 06:37:24;;;;;;;8.47;2.50;;;15.20;57.40;;;;;;4737021;30;20397;-85
2023/06/03 06:39:52;;;;;;;7.95;2.35;;;15.40;56.70;;;;;;4727195;30;20083;-86
2023/06/03 06:42:40;;;;;;;7.90;2.10;;;15.50;53.50;;;;;;4750160;30;20056;-87
2023/06/03 06:45:17;;;;;;;4.70;1.80;;;15.60;54.80;;;;;;4737060;30;20040;-87
2023/06/03 06:47:46;;;;;;;5.07;1.50;;;15.90;51.00;;;;;;4739097;30;20585;-84
2023/06/03 06:50:48;;;;;;;3.83;1.17;;;16.00;49.20;;;;;;4737557;30;20045;-84
2023/06/03 06:53:18;;;;;;;7.32;1.90;;;16.10;46.30;;;;;;4718775;30;20150;-84
2023/06/03 06:55:55;;;;;;;5.28;1.90;;;16.20;49.60;;;;;;4754440;30;20055;-84
2023/06/03 06:58:39;;;;;;;7.63;1.83;;;16.20;49.70;;;;;;4751995;30;20408;-84
2023/06/03 07:01:10;;;;;;;8.15;1.45;;;16.10;50.50;;;;;;4737527;30;20056;-83
2023/06/03 07:03:42;;;;;;;3.60;1.17;;;16.20;47.50;;;;;;4738491;30;20052;-83
2023/06/03 07:06:11;;;;;;;4.00;1.25;;;16.50;46.50;;;;;;4740497;30;20100;-83
2023/06/03 07:08:39;;;;;;;7.15;1.30;;;16.50;43.40;;;;;;4738864;30;20048;-84
2023/06/03 07:11:07;;;;;;;3.28;1.00;;;16.50;42.80;;;;;;4739996;30;20040;-89
2023/06/03 07:13:40;;;;;;;5.65;1.48;;;16.60;44.00;;;;;;4737260;30;20048;-87
2023/06/03 07:16:08;;;;;;;3.60;0.90;;;17.00;43.80;;;;;;4754109;30;20044;-87
2023/06/03 07:18:36;;;;;;;7.07;1.10;;;17.10;42.90;;;;;;4738899;30;20058;-87
2023/06/03 07:21:03;;;;;;;5.57;1.55;;;17.30;42.10;;;;;;4754237;30;20048;-87
2023/06/03 07:23:32;;;;;;;4.30;1.08;;;17.30;42.50;;;;;;4738014;30;20048;-84
2023/06/03 07:25:59;;;;;;;4.60;1.55;;;17.40;41.40;;;;;;4737041;30;20083;-84
2023/06/03 07:28:31;;;;;;;3.17;1.40;;;17.50;43.10;;;;;;4751827;30;20074;-86
2023/06/03 07:31:09;;;;;;;4.25;1.45;;;17.50;43.50;;;;;;4731515;30;20083;-86
2023/06/03 07:33:45;;;;;;;3.88;1.40;;;17.50;41.20;;;;;;4732688;30;20079;-88
2023/06/03 07:36:14;;;;;;;3.92;1.20;;;17.10;41.40;;;;;;4734991;30;20139;-90
2023/06/03 07:39:04;;;;;;;5.40;1.48;;;17.10;41.60;;;;;;4740266;30;20134;-90
2023/06/03 07:41:37;;;;;;;3.30;1.20;;;17.10;41.60;;;;;;4739649;30;20058;-89
2023/06/03 07:44:12;;;;;;;5.72;1.30;;;17.20;40.90;;;;;;4740052;30;20080;-87
2023/06/03 07:46:44;;;;;;;5.20;1.38;;;17.20;41.10;;;;;;4736279;30;20044;-88
2023/06/03 07:49:14;;;;;;;5.18;1.30;;;17.20;42.50;;;;;;4753707;30;20044;-86
2023/06/03 07:51:50;;;;;;;7.13;1.27;;;17.10;43.50;;;;;;4752223;30;20105;-87
2023/06/03 07:54:18;;;;;;;6.50;1.40;;;17.10;42.40;;;;;;4752610;30;20117;-86
2023/06/03 07:56:46;;;;;;;4.13;1.10;;;17.20;40.80;;;;;;4737462;30;20044;-87
2023/06/03 07:59:15;;;;;;;4.80;1.20;;;17.40;41.40;;;;;;4738019;30;20048;-86
2023/06/03 08:01:42;;;;;;;5.50;1.30;;;17.30;41.30;;;;;;4721842;30;20056;-89
2023/06/03 08:04:33;;;;;;;4.70;1.23;;;17.30;39.90;;;;;;4736369;30;20058;-87
2023/06/03 08:07:00;;;;;;;7.90;1.50;;;17.10;39.40;;;;;;4737038;30;20052;-88
2023/06/03 08:09:30;;;;;;;5.90;1.27;;;17.10;39.10;;;;;;4739256;30;20040;-86
2023/06/03 08:11:58;;;;;;;4.93;1.25;;;17.10;40.70;;;;;;4739047;30;20055;-91
2023/06/03 08:14:25;;;;;;;4.13;1.20;;;17.20;39.10;;;;;;4724619;30;20056;-91
2023/06/03 08:16:55;;;;;;;4.53;0.88;;;17.20;40.60;;;;;;4732575;30;20110;-89
2023/06/03 08:19:22;;;;;;;4.90;1.10;;;17.30;40.10;;;;;;4752091;30;20068;-87
2023/06/03 08:21:50;;;;;;;4.07;1.00;;;17.40;41.70;;;;;;4752261;30;20143;-89
2023/06/03 08:24:18;;;;;;;3.45;1.27;;;17.50;39.10;;;;;;4732412;30;20073;-89
2023/06/03 08:26:45;;;;;;;3.97;1.05;;;17.50;38.70;;;;;;4738829;30;20048;-88
2023/06/03 08:29:12;;;;;;;5.18;1.50;;;17.60;41.40;;;;;;4738387;30;20507;-88
2023/06/03 08:31:40;;;;;;;79.43;4.80;;;17.80;39.40;;;;;;4743147;30;20588;-90
2023/06/03 08:34:07;;;;;;;9.15;1.65;;;18.00;39.80;;;;;;4751569;30;20055;-90
2023/06/03 08:36:36;;;;;;;3.95;0.98;;;18.20;39.00;;;;;;4735570;30;20048;-88
2023/06/03 08:39:06;;;;;;;3.75;1.10;;;18.20;39.20;;;;;;4727555;30;20049;-87
2023/06/03 08:41:38;;;;;;;4.50;1.10;;;18.40;40.10;;;;;;4737971;30;20391;-87
2023/06/03 08:44:21;;;;;;;11.17;1.23;;;18.50;38.60;;;;;;4736306;30;20052;-89
2023/06/03 08:47:13;;;;;;;5.40;1.30;;;18.10;39.40;;;;;;4740064;30;20068;-89
2023/06/03 08:50:03;;;;;;;9.57;1.30;;;17.80;38.80;;;;;;4721213;30;20133;-88
2023/06/03 08:52:35;;;;;;;6.90;1.30;;;17.80;40.40;;;;;;4737334;30;20048;-86
2023/06/03 08:55:06;;;;;;;6.00;1.15;;;17.80;38.80;;;;;;4730391;30;20060;-91
2023/06/03 08:57:36;;;;;;;7.20;1.23;;;17.70;39.90;;;;;;4735655;30;20482;-92
2023/06/03 09:00:05;;;;;;;5.63;1.45;;;17.60;42.10;;;;;;4739803;30;20059;-93
2023/06/03 09:02:35;;;;;;;4.28;1.10;;;17.60;41.30;;;;;;4740277;30;20200;-94
2023/06/03 09:05:04;;;;;;;7.75;1.20;;;17.80;40.40;;;;;;4739571;30;20052;-90
2023/06/03 09:07:32;;;;;;;4.60;1.40;;;17.50;38.50;;;;;;4738539;30;20048;-89
2023/06/03 09:10:02;;;;;;;4.57;1.30;;;17.30;40.80;;;;;;4737643;30;20106;-89
2023/06/03 09:12:33;;;;;;;11.95;2.50;;;17.40;40.90;;;;;;4738674;30;20133;-91
2023/06/03 09:15:01;;;;;;;5.43;1.10;;;17.50;40.80;;;;;;4738042;30;20503;-92
2023/06/03 09:17:29;;;;;;;5.38;0.82;;;17.60;41.70;;;;;;4737774;30;20066;-91
2023/06/03 09:20:01;;;;;;;3.75;0.70;;;17.60;40.20;;;;;;4737710;30;20052;-91
2023/06/03 09:22:30;;;;;;;5.50;1.00;;;17.50;40.30;;;;;;4751373;30;20526;-90
2023/06/03 09:24:57;;;;;;;4.28;0.85;;;17.40;40.60;;;;;;4737345;30;20097;-92
2023/06/03 09:27:24;;;;;;;7.38;1.25;;;17.30;41.20;;;;;;4738059;30;20139;-88
2023/06/03 09:29:53;;;;;;;5.43;0.95;;;17.50;41.50;;;;;;4723563;30;20105;-91
2023/06/03 09:32:21;;;;;;;5.43;1.33;;;17.50;41.70;;;;;;4752502;30;20858;-91
2023/06/03 09:34:50;;;;;;;12.60;3.77;;;17.50;41.60;;;;;;4735094;30;20573;-91
2023/06/03 09:37:17;;;;;;;5.15;1.00;;;17.70;43.10;;;;;;4748516;30;20455;-90
2023/06/03 09:39:44;;;;;;;6.65;1.05;;;17.80;42.50;;;;;;4737930;30;20082;-91
2023/06/03 09:42:12;;;;;;;4.93;1.38;;;17.60;42.30;;;;;;4752037;30;20064;-90
2023/06/03 09:44:40;;;;;;;6.25;1.02;;;17.60;43.20;;;;;;4736722;30;20056;-91
2023/06/03 09:47:09;;;;;;;5.03;0.80;;;17.80;42.80;;;;;;4730841;30;20116;-91
2023/06/03 09:49:38;;;;;;;7.47;1.15;;;17.80;40.80;;;;;;4724012;30;20059;-91
2023/06/03 09:52:33;;;;;;;4.43;0.90;;;17.70;43.10;;;;;;4752393;30;20112;-90
2023/06/03 09:55:06;;;;;;;6.90;0.98;;;17.80;42.80;;;;;;4737762;30;20415;-90
2023/06/03 09:57:33;;;;;;;6.68;1.30;;;18.00;43.80;;;;;;4738096;30;20155;-90
2023/06/03 10:00:09;;;;;;;6.97;1.17;;;18.10;42.50;;;;;;4741514;30;20135;-90
2023/06/03 10:02:44;;;;;;;8.60;1.20;;;18.30;42.60;;;;;;4737437;30;20079;-91
2023/06/03 10:05:30;;;;;;;4.47;1.02;;;18.10;42.80;;;;;;4737367;30;20473;-91
2023/06/03 10:07:58;;;;;;;5.90;1.00;;;18.10;41.70;;;;;;4749888;30;20051;-91
2023/06/03 10:10:29;;;;;;;4.03;0.90;;;18.10;41.50;;;;;;4763130;30;20510;-90
2023/06/03 10:12:57;;;;;;;5.17;1.17;;;18.30;42.30;;;;;;4737363;30;20515;-90
2023/06/03 10:15:38;;;;;;;96.68;6.38;;;18.60;43.20;;;;;;4736206;30;20072;-90
2023/06/03 10:18:06;;;;;;;6.50;1.75;;;18.90;44.50;;;;;;4728584;30;20408;-91
2023/06/03 10:20:41;;;;;;;7.13;0.88;;;19.00;42.10;;;;;;4738432;30;20470;-90
2023/06/03 10:23:10;;;;;;;5.20;1.20;;;19.10;42.10;;;;;;4740927;30;20527;-91
2023/06/03 10:25:43;;;;;;;4.23;1.00;;;19.00;41.20;;;;;;4726342;30;20052;-90
2023/06/03 10:28:11;;;;;;;6.05;1.25;;;18.80;41.70;;;;;;4742542;30;20059;-90
2023/06/03 10:30:40;;;;;;;5.35;1.35;;;18.50;43.40;;;;;;4740321;30;20441;-90
2023/06/03 10:33:08;;;;;;;4.97;1.27;;;18.50;42.90;;;;;;4740804;30;20131;-91
2023/06/03 10:35:37;;;;;;;6.32;1.20;;;18.60;43.00;;;;;;4755091;30;20461;-90
2023/06/03 10:38:06;;;;;;;5.20;1.20;;;18.80;43.70;;;;;;4726619;30;20059;-91
2023/06/03 10:40:34;;;;;;;8.57;1.20;;;18.80;41.90;;;;;;4727776;30;20105;-90
2023/06/03 10:43:05;;;;;;;6.38;1.17;;;18.70;42.70;;;;;;4740375;30;20063;-89
2023/06/03 10:50:06;;;;;;;9.68;1.60;;;18.60;42.70;;;;;;4753303;30;20039;-90
2023/06/03 10:53:18;;;;;;;5.10;1.53;;;18.60;42.10;;;;;;4737547;30;20561;-89
2023/06/03 10:56:27;;;;;;;8.70;1.45;;;18.60;43.10;;;;;;4734682;30;20144;-90
2023/06/03 10:59:02;;;;;;;5.38;1.30;;;18.60;41.80;;;;;;4719408;30;20056;-88
2023/06/03 11:02:01;;;;;;;6.43;1.92;;;18.40;41.90;;;;;;4738087;30;20055;-89
2023/06/03 11:04:33;;;;;;;5.63;1.13;;;18.50;42.50;;;;;;4741724;30;20048;-89
2023/06/03 11:07:02;;;;;;;5.50;1.40;;;18.50;41.90;;;;;;4740107;30;20048;-88
2023/06/03 11:09:37;;;;;;;5.75;1.38;;;18.60;43.20;;;;;;4752894;30;20403;-90
2023/06/03 11:12:09;;;;;;;5.25;1.50;;;18.80;42.90;;;;;;4738985;30;20044;-90
2023/06/03 11:14:48;;;;;;;6.13;1.25;;;18.90;43.30;;;;;;4738446;30;20418;-89
2023/06/03 11:17:18;;;;;;;8.88;1.70;;;18.90;42.10;;;;;;4739620;30;20130;-89
2023/06/03 11:19:46;;;;;;;6.87;1.40;;;19.20;43.00;;;;;;4724947;30;20055;-89
2023/06/03 11:22:27;;;;;;;5.20;1.40;;;19.50;42.60;;;;;;4740490;30;20130;-89
2023/06/03 11:24:55;;;;;;;6.57;1.40;;;19.40;43.30;;;;;;4752241;30;20052;-91
2023/06/03 11:27:24;;;;;;;5.90;1.40;;;19.20;42.80;;;;;;4741147;30;20113;-90
2023/06/03 11:29:51;;;;;;;8.32;2.70;;;19.10;41.60;;;;;;4739492;30;20466;-89
2023/06/03 11:32:23;;;;;;;5.20;1.40;;;19.20;44.00;;;;;;4734587;30;20040;-90
2023/06/03 11:34:59;;;;;;;10.35;1.73;;;19.30;42.20;;;;;;4738563;30;20106;-90
2023/06/03 11:37:41;;;;;;;8.23;1.85;;;19.40;43.30;;;;;;4752991;30;20044;-89
2023/06/03 11:40:20;;;;;;;4.55;1.10;;;19.40;42.30;;;;;;4736747;30;20499;-90
2023/06/03 11:42:47;;;;;;;8.77;2.10;;;19.30;42.20;;;;;;4735851;30;20075;-90
2023/06/03 11:45:18;;;;;;;5.07;1.17;;;19.30;41.90;;;;;;4739586;30;20129;-90
2023/06/03 11:47:48;;;;;;;8.48;1.63;;;19.20;40.90;;;;;;4724731;30;20140;-89
2023/06/03 11:50:18;;;;;;;5.00;1.42;;;19.30;43.00;;;;;;4738417;30;20048;-90
2023/06/03 11:52:46;;;;;;;6.45;1.48;;;19.10;43.60;;;;;;4745732;30;20056;-90
2023/06/03 11:55:30;;;;;;;6.80;1.30;;;19.20;42.20;;;;;;4740217;30;20131;-89
2023/06/03 11:58:11;;;;;;;5.53;1.23;;;19.30;42.40;;;;;;4753613;30;20056;-90
2023/06/03 12:00:38;;;;;;;5.60;1.25;;;19.30;42.40;;;;;;4735868;30;20563;-90
2023/06/03 12:03:14;;;;;;;10.18;1.40;;;19.40;42.10;;;;;;4739787;30;20050;-89
2023/06/03 12:06:01;;;;;;;5.75;1.60;;;19.40;43.10;;;;;;4736243;30;20052;-90
2023/06/03 12:08:49;;;;;;;7.40;1.52;;;19.50;41.60;;;;;;4738023;30;20135;-90
2023/06/03 12:11:33;;;;;;;4.83;1.33;;;19.50;42.70;;;;;;4751627;30;20068;-90
2023/06/03 12:14:00;;;;;;;7.28;1.60;;;19.50;43.10;;;;;;4737173;30;20393;-90
2023/06/03 12:16:32;;;;;;;3.67;1.10;;;19.60;42.30;;;;;;4753442;30;20530;-90
2023/06/03 12:19:02;;;;;;;7.03;1.52;;;19.70;42.30;;;;;;4736999;30;20544;-90
2023/06/03 12:21:35;;;;;;;5.45;1.67;;;20.00;44.10;;;;;;4738941;30;20059;-91
2023/06/03 12:24:15;;;;;;;4.43;1.63;;;19.90;39.90;;;;;;4739086;30;20060;-90
2023/06/03 12:26:42;;;;;;;6.57;1.38;;;19.60;41.20;;;;;;4737486;30;20471;-90
2023/06/03 12:29:11;;;;;;;5.50;1.42;;;19.60;41.80;;;;;;4747557;30;20048;-90
2023/06/03 12:31:59;;;;;;;6.13;1.50;;;19.40;41.70;;;;;;4738568;30;20056;-90
2023/06/03 12:34:34;;;;;;;5.75;1.30;;;19.30;41.00;;;;;;4752834;30;20052;-89
2023/06/03 12:37:03;;;;;;;6.53;1.33;;;19.10;40.90;;;;;;4735821;30;20533;-90
2023/06/03 12:39:48;;;;;;;7.63;1.40;;;19.20;41.60;;;;;;4733013;30;20056;-88
2023/06/03 12:42:38;;;;;;;4.25;1.17;;;19.20;42.30;;;;;;4735425;30;20121;-86
2023/06/03 12:45:06;;;;;;;4.72;1.30;;;19.50;41.90;;;;;;4735234;30;20048;-88
2023/06/03 12:47:45;;;;;;;12.85;1.60;;;19.50;42.00;;;;;;4737460;30;20048;-89
2023/06/03 12:50:16;;;;;;;10.67;1.73;;;19.60;42.30;;;;;;4752749;30;20052;-87
2023/06/03 12:52:45;;;;;;;7.00;1.33;;;19.90;40.80;;;;;;4737851;30;20052;-88
2023/06/03 12:55:15;;;;;;;5.65;1.33;;;19.60;40.10;;;;;;4737956;30;20106;-89
2023/06/03 12:57:50;;;;;;;7.53;1.58;;;19.50;42.40;;;;;;4721923;30;20072;-83
2023/06/03 13:00:19;;;;;;;10.65;3.95;;;19.80;40.30;;;;;;4738302;30;20040;-89
2023/06/03 13:02:53;;;;;;;26.97;5.77;;;19.80;40.50;;;;;;4737916;30;20063;-87
2023/06/03 13:05:22;;;;;;;8.13;1.90;;;19.80;41.90;;;;;;4752419;30;20048;-89
2023/06/03 13:07:53;;;;;;;20.67;11.40;;;20.00;40.90;;;;;;4720947;30;20143;-91
2023/06/03 13:10:21;;;;;;;8.32;1.95;;;19.90;39.70;;;;;;4747042;30;20086;-92